Search for airport 
image banner adimage banner adimage banner ad
image banner ad

05CL - Pope Valley

Located in Pope Valley, United States

ICAO - 05CL, IATA -

Data provided by Airmate  

General information

Coordinates: N38°36'39" W122°23'29"
Elevation is 618 feet MSL.
Magnetic variation is 16° East
View others Airports in California

Operational data

Special qualification required
Current time UTC:
Current local time:
METAR: KSTS 141053Z AUTO 18005KT 10SM BKN018 BKN025 17/15 A2999 RMK AO2 SLP147 T01670150
TAF: KSTS 140531Z 1406/1506 22005KT P6SM OVC015 FM141700 VRB03KT P6SM SCT015 FM141900 22007G16KT P6SM FEW200 FM150300 19005KT P6SM SKC
View NOTAMs / SUP AIP / TFR affecting this airport [VIEW]
Communications frequencies: [VIEW]

Runways:

RWY identifierQFULength (ft)Width (ft)SurfaceLDA (ft)
10370060ASPH
28370060ASPH

Airport contact information

Address: Pope Valley United States

Satellite view of 05CL